Time;durP1;ratioP1;P1;durP2;ratioP2;P2;SDS_P1;SDS_P2;PMS_P1;PMS_P2;Temp;Humidity;BMP_temperature;BMP_pressure;BME280_temperature;BME280_humidity;BME280_pressure;Samples;Min_cycle;Max_cycle;Signal;HPM_P1;HPM_P2
2021/03/12 00:03:02;;;;;;;;;60.33;50.33;;;;;;;;12007214;29;8925;-49
2021/03/12 00:09:05;;;;;;;;;65.33;52.33;;;;;;;;12005903;29;8879;-54
2021/03/12 00:15:18;;;;;;;;;67.00;54.67;;;;;;;;12007570;29;8922;-53
2021/03/12 00:21:20;;;;;;;;;65.67;52.33;;;;;;;;12008840;29;8887;-53
2021/03/12 00:27:21;;;;;;;;;51.33;43.67;;;;;;;;12008054;29;8860;-50
2021/03/12 00:33:24;;;;;;;;;51.00;44.33;;;;;;;;12007139;29;8878;-52
2021/03/12 00:39:26;;;;;;;;;48.67;43.33;;;;;;;;12008407;29;9277;-53
2021/03/12 00:45:42;;;;;;;;;68.67;57.00;;;;;;;;12021295;29;8892;-53
2021/03/12 00:51:50;;;;;;;;;70.00;55.33;;;;;;;;12020793;29;8894;-51
2021/03/12 00:57:55;;;;;;;;;70.67;57.33;;;;;;;;12005455;29;8986;-49
2021/03/12 01:03:57;;;;;;;;;71.67;57.00;;;;;;;;12006044;29;8888;-52
2021/03/12 01:09:59;;;;;;;;;79.33;64.33;;;;;;;;12006535;29;8876;-51
2021/03/12 01:16:06;;;;;;;;;81.33;60.00;;;;;;;;12008740;29;8959;-54
2021/03/12 01:22:08;;;;;;;;;77.00;60.33;;;;;;;;12015957;29;8895;-52
2021/03/12 01:28:10;;;;;;;;;74.67;57.67;;;;;;;;12028687;29;8871;-50
2021/03/12 01:34:14;;;;;;;;;65.67;50.67;;;;;;;;12014438;29;8990;-52
2021/03/12 01:40:19;;;;;;;;;84.33;64.33;;;;;;;;12012788;29;9622;-50
2021/03/12 01:46:31;;;;;;;;;78.33;64.00;;;;;;;;12028567;29;8894;-54
2021/03/12 01:52:34;;;;;;;;;78.33;61.00;;;;;;;;12012516;29;9648;-47
2021/03/12 01:58:36;;;;;;;;;84.00;62.67;;;;;;;;12012923;29;8936;-49
2021/03/12 02:04:41;;;;;;;;;80.00;60.00;;;;;;;;12027251;29;8891;-51
2021/03/12 02:10:49;;;;;;;;;78.33;63.00;;;;;;;;12011603;29;8897;-52
2021/03/12 02:17:06;;;;;;;;;79.00;63.00;;;;;;;;12026033;29;8914;-53
2021/03/12 02:23:20;;;;;;;;;71.67;57.33;;;;;;;;12011282;29;8891;-52
2021/03/12 02:29:23;;;;;;;;;72.67;57.67;;;;;;;;12011110;29;8875;-53
2021/03/12 02:35:26;;;;;;;;;83.67;65.33;;;;;;;;12011021;29;9050;-53
2021/03/12 02:41:44;;;;;;;;;76.33;61.67;;;;;;;;12009932;29;8871;-52
2021/03/12 02:47:51;;;;;;;;;78.33;63.33;;;;;;;;12025369;29;8970;-50
2021/03/12 02:53:58;;;;;;;;;75.00;58.00;;;;;;;;12010481;29;8887;-51
2021/03/12 03:00:08;;;;;;;;;78.33;58.00;;;;;;;;11995424;29;8884;-52
2021/03/12 03:06:36;;;;;;;;;79.67;64.00;;;;;;;;12009778;29;8923;-52
2021/03/12 03:12:39;;;;;;;;;75.67;58.00;;;;;;;;12009356;29;8871;-51
2021/03/12 03:18:41;;;;;;;;;72.00;60.67;;;;;;;;12009637;29;8859;-49
2021/03/12 03:24:43;;;;;;;;;68.00;52.67;;;;;;;;12008654;29;8883;-49
2021/03/12 03:30:45;;;;;;;;;64.33;53.00;;;;;;;;12008132;29;8864;-50
2021/03/12 03:36:49;;;;;;;;;71.67;57.33;;;;;;;;12023134;29;8887;-52
2021/03/12 03:42:53;;;;;;;;;69.67;54.33;;;;;;;;12007358;29;8886;-50
2021/03/12 03:48:57;;;;;;;;;65.33;52.00;;;;;;;;12007888;29;8856;-53
2021/03/12 03:55:13;;;;;;;;;70.67;54.67;;;;;;;;12007002;29;8876;-53
2021/03/12 04:01:17;;;;;;;;;61.67;50.33;;;;;;;;12008964;29;8888;-51
2021/03/12 04:07:23;;;;;;;;;60.67;51.00;;;;;;;;12007318;29;8882;-49
2021/03/12 04:13:29;;;;;;;;;55.00;49.00;;;;;;;;12008258;29;8864;-49
2021/03/12 04:19:31;;;;;;;;;62.33;51.67;;;;;;;;12008320;29;8884;-52
2021/03/12 04:25:34;;;;;;;;;69.33;53.33;;;;;;;;12005989;29;8867;-50
2021/03/12 04:31:37;;;;;;;;;63.00;52.33;;;;;;;;12005848;29;8895;-51
2021/03/12 04:37:41;;;;;;;;;61.67;52.67;;;;;;;;12006684;29;8880;-53
2021/03/12 04:43:46;;;;;;;;;60.00;51.67;;;;;;;;12005302;29;8895;-52
2021/03/12 04:49:48;;;;;;;;;63.67;51.67;;;;;;;;12009484;29;8872;-53
2021/03/12 04:55:50;;;;;;;;;68.67;56.00;;;;;;;;12016029;29;8939;-51
2021/03/12 05:01:57;;;;;;;;;72.33;57.00;;;;;;;;12452643;24;8911;-53
2021/03/12 05:08:00;;;;;;;;;69.00;58.00;;;;;;;;12061310;29;9732;-49
2021/03/12 05:14:14;;;;;;;;;66.67;48.00;;;;;;;;12075612;29;8945;-51
2021/03/12 05:20:20;;;;;;;;;69.67;57.00;;;;;;;;12076833;29;8991;-50
2021/03/12 05:26:21;;;;;;;;;71.67;57.00;;;;;;;;12060558;29;8881;-49
2021/03/12 05:32:23;;;;;;;;;73.67;57.33;;;;;;;;12076020;29;8865;-53
2021/03/12 05:38:25;;;;;;;;;75.33;59.33;;;;;;;;12075046;29;8857;-51
2021/03/12 05:44:27;;;;;;;;;77.00;60.67;;;;;;;;12074240;29;8861;-52
2021/03/12 05:50:31;;;;;;;;;77.00;63.00;;;;;;;;12075473;29;9681;-49
2021/03/12 05:56:34;;;;;;;;;78.67;61.00;;;;;;;;12058511;29;8900;-56
2021/03/12 06:02:38;;;;;;;;;72.67;58.00;;;;;;;;12056696;29;8895;-50
2021/03/12 06:08:40;;;;;;;;;77.67;61.00;;;;;;;;12088280;29;8894;-51
2021/03/12 06:14:56;;;;;;;;;77.33;61.33;;;;;;;;12093555;29;8865;-53
2021/03/12 06:21:28;;;;;;;;;77.33;63.00;;;;;;;;12083366;29;8890;-50
2021/03/12 06:27:36;;;;;;;;;88.67;70.00;;;;;;;;12102656;29;8878;-53
2021/03/12 06:34:08;;;;;;;;;81.67;65.33;;;;;;;;12097592;29;9861;-51
2021/03/12 06:40:29;;;;;;;;;86.33;66.33;;;;;;;;12089363;29;8915;-49
2021/03/12 06:46:45;;;;;;;;;79.00;64.00;;;;;;;;12076030;29;9007;-48
2021/03/12 06:52:51;;;;;;;;;75.67;61.33;;;;;;;;12092866;29;8951;-50
2021/03/12 06:59:12;;;;;;;;;86.33;67.33;;;;;;;;12096860;29;9647;-55
2021/03/12 07:05:24;;;;;;;;;79.33;61.33;;;;;;;;12065853;29;8923;-51
2021/03/12 07:11:33;;;;;;;;;79.33;61.33;;;;;;;;12084933;29;9001;-55
2021/03/12 07:18:03;;;;;;;;;62.00;52.25;;;;;;;;12075017;29;8867;-52
2021/03/12 07:24:10;;;;;;;;;66.75;53.50;;;;;;;;12080243;29;9015;-50
2021/03/12 07:30:16;;;;;;;;;62.75;51.75;;;;;;;;12070483;29;8884;-50
2021/03/12 07:36:24;;;;;;;;;53.50;46.50;;;;;;;;12048975;29;8924;-52
2021/03/12 07:42:33;;;;;;;;;73.50;57.75;;;;;;;;12104451;29;8879;-54
2021/03/12 07:48:53;;;;;;;;;69.75;55.25;;;;;;;;12077364;29;8857;-51
2021/03/12 07:55:10;;;;;;;;;72.75;55.25;;;;;;;;12048829;29;8893;-50
2021/03/12 08:01:19;;;;;;;;;69.25;56.75;;;;;;;;12078059;29;8887;-49
2021/03/12 08:07:24;;;;;;;;;74.25;59.50;;;;;;;;12056978;29;8943;-51
2021/03/12 08:13:27;;;;;;;;;69.50;53.50;;;;;;;;12067401;29;8878;-53
2021/03/12 08:19:50;;;;;;;;;66.75;54.25;;;;;;;;12082697;29;8898;-52
2021/03/12 08:26:05;;;;;;;;;64.25;52.00;;;;;;;;12087707;29;8947;-52
2021/03/12 08:32:33;;;;;;;;;64.25;52.00;;;;;;;;12071921;29;8869;-50
2021/03/12 08:38:54;;;;;;;;;64.50;51.50;;;;;;;;12063623;29;8894;-56
2021/03/12 08:45:11;;;;;;;;;68.00;54.75;;;;;;;;12079996;29;8890;-51
2021/03/12 08:51:42;;;;;;;;;70.50;56.50;;;;;;;;12094043;29;9100;-53
2021/03/12 08:58:20;;;;;;;;;77.75;59.50;;;;;;;;12063268;29;8841;-53
2021/03/12 09:04:31;;;;;;;;;76.75;60.25;;;;;;;;12051726;29;8877;-53
2021/03/12 09:11:22;;;;;;;;;71.75;58.00;;;;;;;;12070052;29;8883;-54
2021/03/12 09:17:37;;;;;;;;;74.25;57.25;;;;;;;;12064806;29;8936;-51
2021/03/12 09:23:54;;;;;;;;;69.25;56.25;;;;;;;;12056824;29;8873;-51
2021/03/12 09:29:59;;;;;;;;;74.75;60.50;;;;;;;;12092177;29;8843;-50
2021/03/12 09:36:35;;;;;;;;;78.00;59.50;;;;;;;;12102397;29;8875;-51
2021/03/12 09:42:48;;;;;;;;;70.25;56.50;;;;;;;;12086948;29;8962;-52
2021/03/12 09:49:11;;;;;;;;;75.75;59.00;;;;;;;;12066742;29;8869;-52
2021/03/12 09:55:16;;;;;;;;;63.00;48.75;;;;;;;;12092924;29;8875;-52
2021/03/12 10:01:19;;;;;;;;;65.00;54.00;;;;;;;;12088370;29;9625;-52
2021/03/12 10:07:38;;;;;;;;;70.25;56.50;;;;;;;;12082224;29;8981;-52
2021/03/12 10:13:47;;;;;;;;;76.25;57.25;;;;;;;;12058410;29;9012;-50
2021/03/12 10:20:06;;;;;;;;;71.75;60.75;;;;;;;;12081711;29;8872;-56
2021/03/12 10:26:08;;;;;;;;;68.75;58.25;;;;;;;;12086230;29;8870;-54
2021/03/12 10:32:10;;;;;;;;;82.50;65.25;;;;;;;;12099102;29;8937;-53
2021/03/12 10:38:19;;;;;;;;;81.25;64.00;;;;;;;;12077919;29;8855;-56
2021/03/12 10:44:20;;;;;;;;;68.00;52.25;;;;;;;;12077443;29;8921;-54
2021/03/12 10:50:23;;;;;;;;;65.25;52.25;;;;;;;;12064759;29;8874;-53
2021/03/12 10:56:26;;;;;;;;;65.50;52.00;;;;;;;;12065795;29;8871;-54
2021/03/12 11:02:35;;;;;;;;;76.50;59.00;;;;;;;;12091060;29;8878;-51
2021/03/12 11:08:37;;;;;;;;;67.75;53.75;;;;;;;;12084904;29;8878;-55
2021/03/12 11:14:39;;;;;;;;;67.25;56.00;;;;;;;;12085799;29;9294;-50
2021/03/12 11:20:41;;;;;;;;;71.75;55.75;;;;;;;;12091705;29;8890;-50
2021/03/12 11:26:43;;;;;;;;;69.00;55.50;;;;;;;;12070734;29;8861;-52
2021/03/12 11:32:46;;;;;;;;;76.00;60.75;;;;;;;;12079145;29;8867;-52
2021/03/12 11:38:47;;;;;;;;;68.00;55.00;;;;;;;;12076841;29;8868;-55
2021/03/12 11:44:50;;;;;;;;;64.50;52.75;;;;;;;;12075773;29;8902;-51
2021/03/12 11:50:52;;;;;;;;;69.50;57.00;;;;;;;;12069100;29;8892;-56
2021/03/12 11:56:53;;;;;;;;;65.25;48.50;;;;;;;;12074505;29;8886;-53
2021/03/12 12:02:54;;;;;;;;;58.25;50.25;;;;;;;;12096252;29;8903;-55
2021/03/12 12:08:56;;;;;;;;;63.75;53.00;;;;;;;;12088725;29;8867;-53
2021/03/12 12:14:58;;;;;;;;;73.50;56.75;;;;;;;;12083794;29;8851;-52
2021/03/12 12:21:00;;;;;;;;;51.75;45.75;;;;;;;;12079722;29;8888;-55
2021/03/12 12:27:02;;;;;;;;;62.25;49.25;;;;;;;;12063408;29;8881;-55
2021/03/12 12:33:04;;;;;;;;;38.25;35.50;;;;;;;;12048479;29;8908;-56
2021/03/12 12:39:08;;;;;;;;;41.50;39.25;;;;;;;;12088537;29;8905;-53
2021/03/12 12:45:11;;;;;;;;;46.75;41.25;;;;;;;;12059449;29;8885;-55
2021/03/12 12:51:13;;;;;;;;;57.00;46.75;;;;;;;;12071456;29;8869;-53
2021/03/12 12:57:17;;;;;;;;;47.50;44.25;;;;;;;;12049629;29;8861;-54
2021/03/12 13:03:20;;;;;;;;;45.50;39.25;;;;;;;;12068509;29;8875;-55
2021/03/12 13:09:21;;;;;;;;;44.75;38.00;;;;;;;;12066979;29;8855;-52
2021/03/12 13:15:23;;;;;;;;;51.00;43.75;;;;;;;;12080511;29;8870;-54
2021/03/12 13:21:24;;;;;;;;;53.75;43.75;;;;;;;;12100156;29;8871;-55
2021/03/12 13:27:26;;;;;;;;;57.25;46.50;;;;;;;;12101733;29;8863;-56
2021/03/12 13:33:28;;;;;;;;;49.25;43.50;;;;;;;;12092353;29;8973;-52
2021/03/12 13:39:30;;;;;;;;;55.00;45.00;;;;;;;;12100856;29;9662;-52
2021/03/12 13:45:33;;;;;;;;;51.25;42.25;;;;;;;;12100635;29;8862;-50
2021/03/12 13:51:34;;;;;;;;;46.25;40.00;;;;;;;;12086008;29;8866;-57
2021/03/12 13:57:37;;;;;;;;;37.75;37.00;;;;;;;;12100664;29;8968;-54
2021/03/12 14:03:41;;;;;;;;;47.75;43.00;;;;;;;;12101135;29;8880;-53
2021/03/12 14:09:43;;;;;;;;;38.75;35.75;;;;;;;;12089092;29;8854;-54
2021/03/12 14:15:45;;;;;;;;;38.00;33.75;;;;;;;;12100900;29;8866;-50
2021/03/12 14:21:46;;;;;;;;;45.00;36.75;;;;;;;;12090182;29;9623;-53
2021/03/12 14:27:58;;;;;;;;;37.00;37.00;;;;;;;;12100173;29;8862;-54
2021/03/12 14:34:03;;;;;;;;;42.25;39.00;;;;;;;;12116053;29;8870;-48
2021/03/12 14:40:06;;;;;;;;;42.25;35.50;;;;;;;;12086586;29;8886;-51
2021/03/12 14:46:09;;;;;;;;;40.00;36.25;;;;;;;;12086078;29;8859;-52
2021/03/12 14:52:16;;;;;;;;;46.25;42.25;;;;;;;;12097710;29;8950;-56
2021/03/12 14:58:18;;;;;;;;;59.00;45.00;;;;;;;;12099578;29;8924;-55
2021/03/12 15:04:21;;;;;;;;;47.25;41.25;;;;;;;;12101234;29;8971;-52
2021/03/12 15:10:23;;;;;;;;;56.75;47.75;;;;;;;;12069386;29;8895;-53
2021/03/12 15:16:25;;;;;;;;;51.50;42.50;;;;;;;;12112336;29;8980;-53
2021/03/12 15:22:29;;;;;;;;;42.00;38.50;;;;;;;;12115478;29;8895;-53
2021/03/12 15:28:31;;;;;;;;;56.50;47.25;;;;;;;;12114754;29;8894;-56
2021/03/12 15:34:33;;;;;;;;;52.75;45.50;;;;;;;;12099845;29;8905;-55
2021/03/12 15:40:35;;;;;;;;;50.75;45.75;;;;;;;;12099941;29;8909;-52
2021/03/12 15:46:36;;;;;;;;;54.50;45.75;;;;;;;;12101990;29;8976;-51
2021/03/12 15:52:39;;;;;;;;;62.50;50.00;;;;;;;;12085631;29;8885;-55
2021/03/12 15:58:41;;;;;;;;;55.75;49.50;;;;;;;;12053605;29;8963;-53
2021/03/12 16:04:43;;;;;;;;;63.75;50.25;;;;;;;;12068164;29;8869;-53
2021/03/12 16:10:47;;;;;;;;;52.50;44.50;;;;;;;;12051679;29;9691;-50
2021/03/12 16:16:51;;;;;;;;;51.50;44.75;;;;;;;;12099146;29;8874;-52
2021/03/12 16:23:16;;;;;;;;;64.33;49.67;;;;;;;;12099656;29;8887;-52
2021/03/12 16:29:41;;;;;;;;;60.75;48.25;;;;;;;;12098857;29;8855;-52
2021/03/12 16:35:47;;;;;;;;;63.00;52.00;;;;;;;;12097496;29;8863;-52
2021/03/12 16:41:54;;;;;;;;;61.00;49.00;;;;;;;;12082027;29;8874;-54
2021/03/12 16:47:56;;;;;;;;;66.67;52.00;;;;;;;;12106334;29;8863;-52
2021/03/12 16:53:58;;;;;;;;;59.75;48.75;;;;;;;;12105878;29;8875;-52
2021/03/12 16:59:59;;;;;;;;;63.00;52.50;;;;;;;;12067648;29;9719;-50
2021/03/12 17:06:02;;;;;;;;;69.33;54.00;;;;;;;;12064827;29;8913;-49
2021/03/12 17:12:05;;;;;;;;;70.67;55.00;;;;;;;;12060360;29;8884;-49
2021/03/12 17:18:06;;;;;;;;;61.33;52.00;;;;;;;;12062012;29;8861;-53
2021/03/12 17:24:09;;;;;;;;;60.33;51.00;;;;;;;;12059890;29;8891;-51
2021/03/12 17:30:14;;;;;;;;;57.00;47.33;;;;;;;;12060518;29;8866;-52
2021/03/12 17:36:16;;;;;;;;;72.33;57.67;;;;;;;;12059813;29;8914;-52
2021/03/12 17:42:17;;;;;;;;;75.67;59.00;;;;;;;;12059049;29;8897;-53
2021/03/12 17:48:19;;;;;;;;;68.67;55.33;;;;;;;;12059743;29;8861;-52
2021/03/12 17:54:23;;;;;;;;;58.33;52.33;;;;;;;;12057889;29;8877;-49
2021/03/12 18:00:25;;;;;;;;;61.00;51.67;;;;;;;;12057933;29;8857;-51
2021/03/12 18:06:26;;;;;;;;;80.67;64.00;;;;;;;;12058690;29;8964;-51
2021/03/12 18:12:28;;;;;;;;;84.33;68.67;;;;;;;;12058489;29;8912;-53
2021/03/12 18:18:29;;;;;;;;;78.33;62.67;;;;;;;;12059610;29;8872;-53
2021/03/12 18:24:31;;;;;;;;;76.00;60.00;;;;;;;;12057410;29;8873;-50
2021/03/12 18:30:32;;;;;;;;;76.67;59.67;;;;;;;;12058694;29;8862;-49
2021/03/12 18:36:34;;;;;;;;;88.67;68.00;;;;;;;;12056647;29;8912;-52
2021/03/12 18:42:37;;;;;;;;;84.33;66.00;;;;;;;;12056670;29;8873;-52
2021/03/12 18:48:39;;;;;;;;;85.67;65.33;;;;;;;;12057785;29;8869;-52
2021/03/12 18:54:42;;;;;;;;;80.67;65.33;;;;;;;;12055872;29;8900;-53
2021/03/12 19:00:44;;;;;;;;;75.33;61.00;;;;;;;;12057660;29;8889;-53
2021/03/12 19:06:45;;;;;;;;;79.00;66.00;;;;;;;;12056045;29;8945;-51
2021/03/12 19:12:48;;;;;;;;;87.00;68.33;;;;;;;;12054853;29;8901;-52
2021/03/12 19:18:49;;;;;;;;;80.67;64.67;;;;;;;;12057496;29;8888;-52
2021/03/12 19:24:51;;;;;;;;;88.67;67.33;;;;;;;;12055165;29;8927;-51
2021/03/12 19:30:52;;;;;;;;;83.33;65.33;;;;;;;;12055476;29;8861;-50
2021/03/12 19:36:55;;;;;;;;;64.67;49.67;;;;;;;;12054833;29;8900;-50
2021/03/12 19:42:58;;;;;;;;;78.33;63.67;;;;;;;;12053916;29;9643;-52
2021/03/12 19:49:02;;;;;;;;;81.00;63.33;;;;;;;;12054224;29;8967;-54
2021/03/12 19:55:22;;;;;;;;;86.33;68.33;;;;;;;;12053174;29;8866;-55
2021/03/12 20:01:24;;;;;;;;;79.00;64.00;;;;;;;;12055258;29;8845;-50
2021/03/12 20:07:26;;;;;;;;;79.00;65.33;;;;;;;;12053470;29;8979;-55
2021/03/12 20:13:27;;;;;;;;;84.67;62.33;;;;;;;;12052609;29;8900;-54
2021/03/12 20:19:29;;;;;;;;;77.00;63.00;;;;;;;;12054177;29;8924;-50
2021/03/12 20:25:30;;;;;;;;;81.00;64.33;;;;;;;;12052758;29;8932;-52
2021/03/12 20:31:33;;;;;;;;;84.00;64.67;;;;;;;;12054023;29;8932;-51
2021/03/12 20:37:35;;;;;;;;;71.67;59.33;;;;;;;;12052813;29;8877;-52
2021/03/12 20:43:37;;;;;;;;;85.00;64.33;;;;;;;;12052189;29;8873;-51
2021/03/12 20:49:39;;;;;;;;;69.33;58.00;;;;;;;;12053780;29;8869;-51
2021/03/12 20:55:40;;;;;;;;;74.00;61.33;;;;;;;;12051895;29;8877;-49
2021/03/12 21:01:43;;;;;;;;;69.00;54.33;;;;;;;;12054021;29;8874;-51
2021/03/12 21:07:44;;;;;;;;;84.67;65.33;;;;;;;;12052057;29;8877;-48
2021/03/12 21:13:46;;;;;;;;;82.67;63.33;;;;;;;;12051510;29;8911;-50
2021/03/12 21:19:47;;;;;;;;;74.00;60.33;;;;;;;;12052195;29;8869;-49
2021/03/12 21:25:49;;;;;;;;;80.33;65.00;;;;;;;;12051680;29;8853;-50
2021/03/12 21:31:53;;;;;;;;;79.33;64.00;;;;;;;;12055136;29;8877;-53
2021/03/12 21:37:55;;;;;;;;;74.67;61.00;;;;;;;;12059815;29;8908;-51
2021/03/12 21:43:56;;;;;;;;;82.33;58.67;;;;;;;;12059757;29;8873;-52
2021/03/12 21:49:59;;;;;;;;;72.67;57.33;;;;;;;;12061174;29;9623;-50
2021/03/12 21:56:00;;;;;;;;;74.67;60.33;;;;;;;;12058874;29;8968;-52
2021/03/12 22:02:04;;;;;;;;;74.33;60.00;;;;;;;;12060820;29;8864;-51
2021/03/12 22:08:09;;;;;;;;;78.33;62.33;;;;;;;;12058494;29;8892;-51
2021/03/12 22:14:11;;;;;;;;;72.33;59.33;;;;;;;;12059292;29;8917;-52
2021/03/12 22:20:14;;;;;;;;;70.67;55.00;;;;;;;;12060050;29;8868;-52
2021/03/12 22:26:15;;;;;;;;;72.00;59.00;;;;;;;;12057279;29;8896;-49
2021/03/12 22:32:20;;;;;;;;;73.67;59.00;;;;;;;;12058855;29;8869;-51
2021/03/12 22:38:21;;;;;;;;;70.00;57.00;;;;;;;;12057090;29;8991;-51
2021/03/12 22:44:23;;;;;;;;;73.67;57.67;;;;;;;;12056317;29;8861;-48
2021/03/12 22:50:29;;;;;;;;;69.67;56.33;;;;;;;;12057984;29;8877;-50
2021/03/12 22:56:31;;;;;;;;;71.67;54.33;;;;;;;;12056403;29;8893;-51
2021/03/12 23:02:39;;;;;;;;;64.33;49.67;;;;;;;;12057422;29;8983;-52
2021/03/12 23:08:47;;;;;;;;;68.00;53.67;;;;;;;;12055496;29;8880;-51
2021/03/12 23:14:49;;;;;;;;;62.67;52.33;;;;;;;;12056246;29;8881;-50
2021/03/12 23:21:06;;;;;;;;;67.00;49.50;;;;;;;;12056805;29;8873;-47
2021/03/12 23:27:07;;;;;;;;;66.25;55.00;;;;;;;;12054500;29;8869;-50
2021/03/12 23:33:14;;;;;;;;;65.75;56.50;;;;;;;;12055465;29;9675;-50
2021/03/12 23:39:15;;;;;;;;;70.75;58.25;;;;;;;;12054083;29;8857;-49
2021/03/12 23:45:21;;;;;;;;;69.75;54.50;;;;;;;;12055874;29;9677;-50
2021/03/12 23:51:23;;;;;;;;;59.00;49.00;;;;;;;;12054181;29;8933;-50
2021/03/12 23:57:25;;;;;;;;;73.33;56.33;;;;;;;;12053482;29;8899;-51
